CheckWX is a tool to help pilots better visualize weather data.  It is not intended as a substitute for an official pre-flight weather briefing.

06:03:34 UTC

SKBQ TAF
Ernesto Cortissoz International Airport
Barranquilla, Colombia
TAF SKBQ 061030Z 0612/0712 01004KT 9999 FEW015 BECMG 0617/0619 01014KT BECMG 0707/0709 02004KT TX33/0616Z TN26/0710Z

Apr-6@
12:00 UTC

Apr-6 @ 12:00 UTC

Apr-6@
17:00 UTC

Apr-6 @ 17:00 UTC

TAF SKBQ 061030Z 0612/0712 01004KT 9999 FEW015

Expired

Wind
  • 010° at 4 KTS
Cloud Levels
  • Few at 1,500' AGL

Apr-6@
17:00 UTC

Apr-6 @ 17:00 UTC

Apr-7@
07:00 UTC

Apr-7 @ 07:00 UTC

BECMG 0617/0619 01014KT

Becoming

Becoming Conditions expected by Mon, Apr 6, 2020 @ 19:00 UTC

Wind
  • 010° at 14 KTS
Cloud Levels
  • Few at 1,500' AGL

Apr-7@
07:00 UTC

Apr-7 @ 07:00 UTC

Apr-7@
12:00 UTC

Apr-7 @ 12:00 UTC

BECMG 0707/0709 02004KT TX33/0616Z TN26/0710Z

Becoming

Becoming Conditions expected by Tue, Apr 7, 2020 @ 09:00 UTC

Wind
  • 020° at 4 KTS
Cloud Levels
  • Few at 1,500' AGL